createdAt,value
2022-10-02T00:00:40.494Z,14.22
2022-10-02T00:03:16.143Z,13.92
2022-10-02T00:05:49.381Z,13.29
2022-10-02T00:08:27.397Z,13.18
2022-10-02T00:11:03.543Z,14.99
2022-10-02T00:13:54.304Z,14.89
2022-10-02T00:16:34.929Z,14.80
2022-10-02T00:19:03.034Z,13.91
2022-10-02T00:21:52.957Z,14.72
2022-10-02T00:24:26.311Z,14.79
2022-10-02T00:27:01.210Z,14.75
2022-10-02T00:29:31.308Z,14.75
2022-10-02T00:32:04.436Z,14.77
2022-10-02T00:34:45.156Z,14.93
2022-10-02T00:37:28.514Z,14.83
2022-10-02T00:40:22.068Z,14.85
2022-10-02T00:42:59.515Z,14.89
2022-10-02T00:45:29.102Z,14.87
2022-10-02T00:48:17.976Z,14.95
2022-10-02T00:51:22.272Z,15.05
2022-10-02T00:53:52.048Z,15.06
2022-10-02T00:56:30.965Z,14.23
2022-10-02T00:59:24.588Z,14.10
2022-10-02T01:01:51.348Z,15.10
2022-10-02T01:04:29.395Z,14.04
2022-10-02T01:06:56.846Z,14.74
2022-10-02T01:09:24.909Z,13.63
2022-10-02T01:11:52.871Z,13.48
2022-10-02T01:14:19.673Z,13.82
2022-10-02T01:16:47.119Z,13.90
2022-10-02T01:19:29.648Z,14.72
2022-10-02T01:22:55.069Z,14.66
2022-10-02T01:25:22.007Z,13.40
2022-10-02T01:27:50.530Z,14.43
2022-10-02T01:30:19.753Z,14.27
2022-10-02T01:32:55.317Z,13.54
2022-10-02T01:35:26.232Z,14.47
2022-10-02T01:37:55.407Z,13.62
2022-10-02T01:40:35.416Z,14.33
2022-10-02T01:43:19.475Z,13.35
2022-10-02T01:46:01.276Z,14.18
2022-10-02T01:48:30.832Z,14.14
2022-10-02T01:51:35.170Z,14.10
2022-10-02T01:54:16.719Z,14.01
2022-10-02T01:57:30.530Z,13.94
2022-10-02T02:00:08.492Z,13.73
2022-10-02T02:03:17.129Z,13.90
2022-10-02T02:06:08.406Z,13.86
2022-10-02T02:08:46.811Z,13.75
2022-10-02T02:11:15.056Z,13.72
2022-10-02T02:13:49.729Z,12.39
2022-10-02T02:16:22.506Z,13.60
2022-10-02T02:19:20.470Z,13.53
2022-10-02T02:22:01.250Z,13.41
2022-10-02T02:24:41.566Z,13.34
2022-10-02T02:27:14.973Z,13.23
2022-10-02T02:29:45.367Z,12.80
2022-10-02T02:32:18.354Z,12.36
2022-10-02T02:34:50.324Z,12.44
2022-10-02T02:37:22.820Z,12.33
2022-10-02T02:39:57.989Z,13.34
2022-10-02T02:42:30.927Z,12.27
2022-10-02T02:45:07.049Z,13.34
2022-10-02T02:47:46.175Z,12.44
2022-10-02T02:50:20.308Z,13.24
2022-10-02T02:53:16.554Z,12.84
2022-10-02T02:56:13.186Z,13.29
2022-10-02T02:58:46.070Z,13.33
2022-10-02T03:01:13.001Z,12.88
2022-10-02T03:03:39.975Z,13.37
2022-10-02T03:06:26.808Z,11.98
2022-10-02T03:08:54.970Z,13.21
2022-10-02T03:12:12.208Z,13.16
2022-10-02T03:14:48.886Z,13.10
2022-10-02T03:17:31.411Z,13.16
2022-10-02T03:20:25.151Z,11.90
2022-10-02T03:23:14.512Z,13.21
2022-10-02T03:25:58.271Z,13.19
2022-10-02T03:28:54.952Z,13.10
2022-10-02T03:31:27.334Z,12.59
2022-10-02T03:33:55.276Z,13.04
2022-10-02T03:36:22.941Z,13.18
2022-10-02T03:39:12.572Z,11.83
2022-10-02T03:41:39.134Z,12.53
2022-10-02T03:44:06.248Z,12.03
2022-10-02T03:46:33.434Z,12.24
2022-10-02T03:49:00.412Z,12.34
2022-10-02T03:51:27.378Z,11.97
2022-10-02T03:53:54.207Z,12.45
2022-10-02T03:56:26.897Z,13.41
2022-10-02T03:58:57.856Z,13.45
2022-10-02T04:01:29.508Z,13.44
2022-10-02T04:04:01.594Z,13.40
2022-10-02T04:06:51.773Z,13.34
2022-10-02T04:09:18.718Z,13.31
2022-10-02T04:11:53.970Z,12.94
2022-10-02T04:14:31.860Z,12.04
2022-10-02T04:17:33.772Z,13.11
2022-10-02T04:20:09.930Z,12.11
2022-10-02T04:22:45.573Z,13.16
2022-10-02T04:25:24.876Z,13.18
2022-10-02T04:27:57.383Z,13.17
2022-10-02T04:30:25.250Z,13.24
2022-10-02T04:32:52.793Z,13.18
2022-10-02T04:35:22.380Z,13.15
2022-10-02T04:38:07.932Z,13.14
2022-10-02T04:40:43.568Z,13.09
2022-10-02T04:43:33.223Z,12.13
2022-10-02T04:46:21.857Z,13.10
2022-10-02T04:49:06.760Z,13.11
2022-10-02T04:51:36.229Z,13.15
2022-10-02T04:54:24.496Z,13.18
2022-10-02T04:57:09.786Z,13.22
2022-10-02T04:59:57.708Z,13.27
2022-10-02T05:02:53.550Z,13.33
2022-10-02T05:05:37.542Z,13.36
2022-10-02T05:08:23.126Z,13.39
2022-10-02T05:11:11.470Z,13.43
2022-10-02T05:13:56.669Z,13.43
2022-10-02T05:16:48.050Z,13.51
2022-10-02T05:19:20.556Z,13.55
2022-10-02T05:22:25.636Z,13.55
2022-10-02T05:25:26.914Z,13.55
2022-10-02T05:28:21.562Z,13.63
2022-10-02T05:31:01.812Z,13.52
2022-10-02T05:33:36.647Z,13.79
2022-10-02T05:36:19.989Z,13.12
2022-10-02T05:39:08.135Z,14.11
2022-10-02T05:41:52.848Z,14.28
2022-10-02T05:44:24.130Z,13.57
2022-10-02T05:46:57.959Z,13.72
2022-10-02T05:49:35.232Z,14.14
2022-10-02T05:52:19.995Z,14.73
2022-10-02T05:54:59.687Z,13.85
2022-10-02T05:57:39.313Z,14.83
2022-10-02T06:00:25.824Z,14.60
2022-10-02T06:03:25.170Z,14.86
2022-10-02T06:05:59.262Z,14.90
2022-10-02T06:08:34.537Z,14.05
2022-10-02T06:11:08.880Z,14.93
2022-10-02T06:14:00.822Z,15.11
2022-10-02T06:16:36.303Z,14.26
2022-10-02T06:19:12.894Z,14.91
2022-10-02T06:21:49.611Z,15.12
2022-10-02T06:24:29.548Z,15.32
2022-10-02T06:27:13.397Z,15.33
2022-10-02T06:29:45.945Z,14.34
2022-10-02T06:32:33.095Z,14.73
2022-10-02T06:35:00.770Z,15.20
2022-10-02T06:37:30.543Z,15.50
2022-10-02T06:40:00.139Z,15.77
2022-10-02T06:43:13.315Z,15.70
2022-10-02T06:45:59.593Z,15.50
2022-10-02T06:48:41.590Z,15.57
2022-10-02T06:51:30.388Z,15.80
2022-10-02T06:54:09.454Z,15.99
2022-10-02T06:56:54.636Z,16.41
2022-10-02T06:59:49.069Z,16.47
2022-10-02T07:02:54.375Z,16.10
2022-10-02T07:05:47.637Z,16.15
2022-10-02T07:08:25.509Z,15.59
2022-10-02T07:11:09.836Z,16.83
2022-10-02T07:13:51.991Z,17.15
2022-10-02T07:16:56.976Z,16.77
2022-10-02T07:19:42.097Z,16.59
2022-10-02T07:22:43.447Z,17.15
2022-10-02T07:25:40.128Z,17.43
2022-10-02T07:28:28.744Z,17.27
2022-10-02T07:31:37.075Z,17.23
2022-10-02T07:34:41.326Z,17.11
2022-10-02T07:37:40.635Z,17.30
2022-10-02T07:40:25.577Z,17.16
2022-10-02T07:43:02.733Z,17.32
2022-10-02T07:45:37.558Z,17.10
2022-10-02T07:48:22.822Z,18.02
2022-10-02T07:51:20.418Z,18.06
2022-10-02T07:53:56.655Z,17.20
2022-10-02T07:56:24.129Z,18.41
2022-10-02T07:59:06.493Z,17.86
2022-10-02T08:01:37.191Z,18.66
2022-10-02T08:04:24.629Z,17.91
2022-10-02T08:06:58.128Z,17.62
2022-10-02T08:09:37.779Z,18.78
2022-10-02T08:12:22.474Z,18.96
2022-10-02T08:14:53.704Z,18.64
2022-10-02T08:17:33.404Z,17.90
2022-10-02T08:20:17.853Z,18.43
2022-10-02T08:22:51.393Z,18.32
2022-10-02T08:25:39.788Z,19.61
2022-10-02T08:28:30.577Z,19.60
2022-10-02T08:30:58.733Z,18.50
2022-10-02T08:33:25.430Z,18.16
2022-10-02T08:36:13.899Z,18.77
2022-10-02T08:38:46.583Z,18.66
2022-10-02T08:41:35.092Z,19.02
2022-10-02T08:44:26.344Z,19.70
2022-10-02T08:47:16.013Z,19.06
2022-10-02T08:50:20.261Z,19.54
2022-10-02T08:52:58.768Z,19.23
2022-10-02T08:55:54.767Z,19.66
2022-10-02T08:58:47.669Z,20.15
2022-10-02T09:01:39.200Z,19.82
2022-10-02T09:04:39.887Z,19.95
2022-10-02T09:07:31.653Z,20.60
2022-10-02T09:10:10.654Z,20.36
2022-10-02T09:13:14.914Z,20.71
2022-10-02T09:15:48.219Z,20.40
2022-10-02T09:18:20.772Z,20.10
2022-10-02T09:21:11.554Z,19.66
2022-10-02T09:24:00.106Z,20.52
2022-10-02T09:26:40.713Z,21.10
2022-10-02T09:29:26.170Z,21.16
2022-10-02T09:32:19.312Z,21.26
2022-10-02T09:34:48.972Z,21.28
2022-10-02T09:37:36.052Z,20.56
2022-10-02T09:40:26.986Z,21.27
2022-10-02T09:43:35.712Z,21.26
2022-10-02T09:46:34.993Z,21.13
2022-10-02T09:49:26.893Z,21.41
2022-10-02T09:52:26.972Z,21.29
2022-10-02T09:55:22.773Z,20.53
2022-10-02T09:58:17.153Z,20.89
2022-10-02T10:01:02.328Z,20.57
2022-10-02T10:03:45.463Z,20.77
2022-10-02T10:06:34.691Z,20.71
2022-10-02T10:09:24.892Z,20.92
2022-10-02T10:12:34.811Z,21.07
2022-10-02T10:15:09.173Z,21.41
2022-10-02T10:17:54.645Z,21.09
2022-10-02T10:21:11.933Z,19.75
2022-10-02T10:23:54.013Z,18.82
2022-10-02T10:27:06.213Z,19.27
2022-10-02T10:29:54.209Z,19.35
2022-10-02T10:32:48.068Z,19.49
2022-10-02T10:35:46.383Z,19.38
2022-10-02T10:38:43.029Z,19.42
2022-10-02T10:41:10.051Z,19.68
2022-10-02T10:43:57.438Z,20.56
2022-10-02T10:46:48.810Z,20.78
2022-10-02T10:50:03.528Z,20.93
2022-10-02T10:52:36.232Z,21.53
2022-10-02T10:55:17.420Z,21.46
2022-10-02T10:58:00.509Z,19.56
2022-10-02T11:01:01.992Z,20.00
2022-10-02T11:03:47.051Z,19.74
2022-10-02T11:06:32.347Z,19.63
2022-10-02T11:09:26.596Z,19.94
2022-10-02T11:12:30.008Z,20.14
2022-10-02T11:15:15.309Z,20.67
2022-10-02T11:18:18.965Z,21.28
2022-10-02T11:21:10.451Z,21.43
2022-10-02T11:23:53.479Z,21.14
2022-10-02T11:27:00.196Z,21.42
2022-10-02T11:29:29.634Z,21.74
2022-10-02T11:32:14.010Z,20.04
2022-10-02T11:35:14.670Z,21.12
2022-10-02T11:38:04.232Z,21.47
2022-10-02T11:41:07.616Z,21.86
2022-10-02T11:43:48.114Z,21.45
2022-10-02T11:46:24.183Z,20.88
2022-10-02T11:48:56.797Z,21.68
2022-10-02T11:51:37.608Z,21.61
2022-10-02T11:54:37.692Z,20.58
2022-10-02T11:57:24.326Z,21.80
2022-10-02T12:00:26.716Z,21.12
2022-10-02T12:02:56.163Z,22.00
2022-10-02T12:05:35.252Z,21.21
2022-10-02T12:08:17.275Z,20.12
2022-10-02T12:11:11.014Z,20.73
2022-10-02T12:14:08.105Z,22.05
2022-10-02T12:16:53.041Z,21.69
2022-10-02T12:19:26.836Z,22.03
2022-10-02T12:22:04.593Z,21.95
2022-10-02T12:24:46.413Z,22.36
2022-10-02T12:27:31.453Z,21.52
2022-10-02T12:30:19.550Z,21.75
2022-10-02T12:33:09.585Z,21.76
2022-10-02T12:36:02.097Z,21.79
2022-10-02T12:39:02.526Z,21.79
2022-10-02T12:41:51.219Z,21.98
2022-10-02T12:44:46.995Z,20.68
2022-10-02T12:47:46.886Z,21.47
2022-10-02T12:50:29.573Z,22.03
2022-10-02T12:53:05.354Z,21.52
2022-10-02T12:55:53.650Z,21.66
2022-10-02T12:58:29.710Z,21.39
2022-10-02T13:01:05.658Z,21.57
2022-10-02T13:03:35.333Z,21.28
2022-10-02T13:06:20.664Z,21.46
2022-10-02T13:09:02.459Z,20.65
2022-10-02T13:11:51.389Z,20.54
2022-10-02T13:14:41.633Z,21.34
2022-10-02T13:17:17.511Z,21.11
2022-10-02T13:20:00.142Z,20.79
2022-10-02T13:22:50.016Z,20.22
2022-10-02T13:25:28.939Z,21.04
2022-10-02T13:28:07.938Z,19.61
2022-10-02T13:30:43.595Z,19.78
2022-10-02T13:33:31.966Z,20.81
2022-10-02T13:36:16.873Z,20.89
2022-10-02T13:38:58.605Z,21.25
2022-10-02T13:41:37.940Z,21.15
2022-10-02T13:44:21.772Z,19.09
2022-10-02T13:47:22.570Z,20.44
2022-10-02T13:50:14.110Z,20.44
2022-10-02T13:53:01.917Z,20.56
2022-10-02T13:55:34.332Z,20.17
2022-10-02T13:58:27.694Z,21.34
2022-10-02T14:01:07.181Z,21.46
2022-10-02T14:03:36.917Z,21.72
2022-10-02T14:06:23.969Z,19.73
2022-10-02T14:09:16.109Z,20.29
2022-10-02T14:11:46.114Z,21.42
2022-10-02T14:14:24.914Z,21.37
2022-10-02T14:17:18.828Z,20.51
2022-10-02T14:20:04.932Z,19.22
2022-10-02T14:22:40.928Z,19.91
2022-10-02T14:25:27.872Z,20.40
2022-10-02T14:28:09.317Z,20.67
2022-10-02T14:30:54.370Z,20.89
2022-10-02T14:33:36.012Z,20.56
2022-10-02T14:36:05.695Z,20.87
2022-10-02T14:38:59.650Z,20.80
2022-10-02T14:41:53.903Z,20.46
2022-10-02T14:44:50.855Z,19.84
2022-10-02T14:47:41.629Z,20.12
2022-10-02T14:50:27.220Z,19.91
2022-10-02T14:53:35.029Z,19.46
2022-10-02T14:56:19.871Z,20.28
2022-10-02T14:59:15.471Z,20.41
2022-10-02T15:02:07.103Z,20.27
2022-10-02T15:05:02.284Z,20.16
2022-10-02T15:07:34.834Z,19.25
2022-10-02T15:10:13.628Z,19.71
2022-10-02T15:12:44.585Z,19.48
2022-10-02T15:15:20.555Z,18.67
2022-10-02T15:18:16.034Z,19.12
2022-10-02T15:21:18.647Z,18.98
2022-10-02T15:23:51.574Z,18.13
2022-10-02T15:26:28.747Z,18.90
2022-10-02T15:29:08.103Z,18.49
2022-10-02T15:32:03.507Z,17.40
2022-10-02T15:35:14.886Z,18.19
2022-10-02T15:38:12.135Z,17.99
2022-10-02T15:40:47.105Z,18.15
2022-10-02T15:43:16.794Z,17.96
2022-10-02T15:45:58.717Z,17.99
2022-10-02T15:48:52.742Z,16.77
2022-10-02T15:51:29.551Z,16.90
2022-10-02T15:54:17.098Z,17.76
2022-10-02T15:57:06.074Z,17.67
2022-10-02T15:59:38.700Z,17.63
2022-10-02T16:02:33.374Z,17.64
2022-10-02T16:05:38.932Z,17.51
2022-10-02T16:08:14.404Z,17.42
2022-10-02T16:11:03.579Z,17.45
2022-10-02T16:13:47.220Z,17.46
2022-10-02T16:16:29.467Z,17.41
2022-10-02T16:19:17.951Z,15.57
2022-10-02T16:22:17.765Z,17.17
2022-10-02T16:25:00.449Z,17.01
2022-10-02T16:27:51.830Z,16.90
2022-10-02T16:30:22.050Z,16.83
2022-10-02T16:33:07.975Z,16.73
2022-10-02T16:35:43.729Z,16.63
2022-10-02T16:38:38.153Z,16.58
2022-10-02T16:41:20.386Z,15.48
2022-10-02T16:43:59.452Z,16.36
2022-10-02T16:46:36.422Z,15.20
2022-10-02T16:49:43.166Z,16.27
2022-10-02T16:52:41.344Z,15.54
2022-10-02T16:55:35.430Z,15.93
2022-10-02T16:58:27.422Z,15.66
2022-10-02T17:01:06.258Z,15.45
2022-10-02T17:04:04.933Z,15.12
2022-10-02T17:06:39.580Z,15.35
2022-10-02T17:09:27.168Z,13.93
2022-10-02T17:12:13.388Z,14.97
2022-10-02T17:15:04.104Z,14.81
2022-10-02T17:17:51.131Z,14.69
2022-10-02T17:20:22.733Z,14.77
2022-10-02T17:23:01.790Z,14.93
2022-10-02T17:25:43.970Z,15.12
2022-10-02T17:28:16.737Z,15.11
2022-10-02T17:31:00.924Z,13.86
2022-10-02T17:33:44.289Z,15.07
2022-10-02T17:36:22.805Z,14.16
2022-10-02T17:39:06.071Z,13.90
2022-10-02T17:42:19.099Z,15.08
2022-10-02T17:45:01.226Z,15.10
2022-10-02T17:47:42.365Z,13.91
2022-10-02T17:50:51.564Z,15.13
2022-10-02T17:53:44.555Z,14.71
2022-10-02T17:56:39.794Z,14.94
2022-10-02T17:59:28.103Z,15.01
2022-10-02T18:02:27.295Z,14.73
2022-10-02T18:05:16.828Z,14.94
2022-10-02T18:07:43.626Z,14.96
2022-10-02T18:10:39.261Z,14.90
2022-10-02T18:13:18.033Z,14.88
2022-10-02T18:15:55.897Z,14.52
2022-10-02T18:18:28.911Z,14.42
2022-10-02T18:21:32.616Z,14.22
2022-10-02T18:24:20.718Z,14.11
2022-10-02T18:27:25.050Z,14.31
2022-10-02T18:29:52.215Z,13.82
2022-10-02T18:32:43.849Z,13.90
2022-10-02T18:35:22.916Z,13.95
2022-10-02T18:38:17.251Z,13.94
2022-10-02T18:40:56.290Z,13.87
2022-10-02T18:43:49.213Z,13.84
2022-10-02T18:46:49.862Z,12.76
2022-10-02T18:49:45.425Z,12.92
2022-10-02T18:52:27.767Z,13.81
2022-10-02T18:55:15.503Z,13.74
2022-10-02T18:58:10.934Z,12.70
2022-10-02T19:01:13.862Z,13.23
2022-10-02T19:04:02.509Z,13.89
2022-10-02T19:07:19.292Z,10.16
2022-10-02T19:09:47.580Z,11.42
2022-10-02T19:12:24.457Z,10.07
2022-10-02T19:14:56.490Z,13.79
2022-10-02T19:17:56.588Z,11.26
2022-10-02T19:20:55.831Z,13.50
2022-10-02T19:23:47.260Z,13.48
2022-10-02T19:26:30.632Z,10.50
2022-10-02T19:29:16.133Z,10.67
2022-10-02T19:31:46.064Z,10.80
2022-10-02T19:34:27.822Z,13.19
2022-10-02T19:37:11.314Z,10.31
2022-10-02T19:40:01.113Z,11.52
2022-10-02T19:42:45.736Z,8.82
2022-10-02T19:45:48.052Z,8.90
2022-10-02T19:48:19.072Z,8.84
2022-10-02T19:51:06.351Z,10.62
2022-10-02T19:53:41.740Z,10.25
2022-10-02T19:56:23.234Z,10.28
2022-10-02T19:59:13.718Z,8.84
2022-10-02T20:02:12.694Z,12.91
2022-10-02T20:04:42.357Z,10.59
2022-10-02T20:07:20.299Z,8.65
2022-10-02T20:09:57.454Z,8.56
2022-10-02T20:12:35.077Z,12.00
2022-10-02T20:15:10.492Z,7.01
2022-10-02T20:17:38.888Z,7.80
2022-10-02T20:20:17.652Z,9.54
2022-10-02T20:22:57.233Z,11.95
2022-10-02T20:25:48.380Z,10.66
2022-10-02T20:28:22.141Z,7.52
2022-10-02T20:31:24.611Z,9.35
2022-10-02T20:34:01.811Z,9.74
2022-10-02T20:36:35.975Z,9.48
2022-10-02T20:39:11.007Z,9.19
2022-10-02T20:42:04.735Z,9.56
2022-10-02T20:44:38.336Z,11.24
2022-10-02T20:47:35.508Z,12.21
2022-10-02T20:50:15.209Z,10.54
2022-10-02T20:53:09.832Z,11.95
2022-10-02T20:55:41.727Z,11.92
2022-10-02T20:58:44.673Z,7.67
2022-10-02T21:01:31.215Z,11.85
2022-10-02T21:04:25.007Z,11.23
2022-10-02T21:07:13.265Z,11.99
2022-10-02T21:10:00.083Z,11.99
2022-10-02T21:13:17.734Z,7.70
2022-10-02T21:16:21.722Z,11.44
2022-10-02T21:19:14.386Z,11.70
2022-10-02T21:21:53.995Z,11.05
2022-10-02T21:24:52.301Z,11.61
2022-10-02T21:27:28.158Z,11.88
2022-10-02T21:30:16.755Z,12.00
2022-10-02T21:33:05.731Z,11.86
2022-10-02T21:35:58.714Z,10.78
2022-10-02T21:38:44.377Z,11.31
2022-10-02T21:41:31.816Z,11.72
2022-10-02T21:44:28.972Z,10.20
2022-10-02T21:47:20.089Z,12.02
2022-10-02T21:50:26.071Z,9.04
2022-10-02T21:53:33.212Z,12.07
2022-10-02T21:56:41.793Z,7.38
2022-10-02T21:59:31.005Z,11.77
2022-10-02T22:02:11.348Z,11.65
2022-10-02T22:05:17.429Z,11.50
2022-10-02T22:07:50.495Z,11.60
2022-10-02T22:10:36.894Z,10.42
2022-10-02T22:13:37.098Z,9.85
2022-10-02T22:16:23.040Z,9.14
2022-10-02T22:19:10.428Z,10.96
2022-10-02T22:22:35.612Z,9.46
2022-10-02T22:25:14.328Z,11.02
2022-10-02T22:27:54.263Z,10.35
2022-10-02T22:30:30.669Z,6.44
2022-10-02T22:33:34.873Z,10.76
2022-10-02T22:36:41.590Z,7.97
2022-10-02T22:39:17.408Z,10.69
2022-10-02T22:41:57.368Z,8.06
2022-10-02T22:44:31.929Z,8.05
2022-10-02T22:47:11.930Z,6.67
2022-10-02T22:49:48.149Z,6.67
2022-10-02T22:52:53.354Z,10.85
2022-10-02T22:55:27.531Z,6.29
2022-10-02T22:58:10.313Z,10.59
2022-10-02T23:00:54.590Z,10.22
2022-10-02T23:03:32.674Z,8.75
2022-10-02T23:06:06.673Z,8.86
2022-10-02T23:08:52.249Z,6.52
2022-10-02T23:11:28.752Z,10.15
2022-10-02T23:14:43.419Z,10.25
2022-10-02T23:17:44.933Z,9.88
2022-10-02T23:20:27.434Z,7.93
2022-10-02T23:23:02.510Z,10.25
2022-10-02T23:25:54.885Z,8.77
2022-10-02T23:28:44.871Z,8.45
2022-10-02T23:31:22.941Z,9.98
2022-10-02T23:33:56.473Z,7.41
2022-10-02T23:36:29.578Z,7.32
2022-10-02T23:39:16.046Z,6.43
2022-10-02T23:41:48.710Z,10.22
2022-10-02T23:44:53.591Z,6.58
2022-10-02T23:47:26.554Z,10.15
2022-10-02T23:49:59.147Z,6.94
2022-10-02T23:52:41.834Z,7.14
2022-10-02T23:55:42.954Z,8.44
2022-10-02T23:58:37.353Z,9.75
